Map

Track Data

SID SEASON NUMBER BASIN SUBBASIN NAME ISO_TIME NATURE LAT LON WMO_WIND WMO_PRES WMO_AGENCY TRACK_TYPE DIST2LAND LANDFALL IFLAG USA_AGENCY USA_ATCF_ID USA_LAT USA_LON USA_RECORD USA_STATUS USA_WIND USA_PRES USA_SSHS USA_R34_NE USA_R34_SE USA_R34_SW USA_R34_NW USA_R50_NE USA_R50_SE USA_R50_SW USA_R50_NW USA_R64_NE USA_R64_SE USA_R64_SW USA_R64_NW USA_POCI USA_ROCI USA_RMW USA_EYE TOKYO_LAT TOKYO_LON TOKYO_GRADE TOKYO_WIND TOKYO_PRES TOKYO_R50_DIR TOKYO_R50_LONG TOKYO_R50_SHORT TOKYO_R30_DIR TOKYO_R30_LONG TOKYO_R30_SHORT TOKYO_LAND CMA_LAT CMA_LON CMA_CAT CMA_WIND CMA_PRES HKO_LAT HKO_LON HKO_CAT HKO_WIND HKO_PRES NEWDELHI_LAT NEWDELHI_LON NEWDELHI_GRADE NEWDELHI_WIND NEWDELHI_PRES NEWDELHI_CI NEWDELHI_DP NEWDELHI_POCI REUNION_LAT REUNION_LON REUNION_TYPE REUNION_WIND REUNION_PRES REUNION_TNUM REUNION_CI REUNION_RMW REUNION_R34_NE REUNION_R34_SE REUNION_R34_SW REUNION_R34_NW REUNION_R50_NE REUNION_R50_SE REUNION_R50_SW REUNION_R50_NW REUNION_R64_NE REUNION_R64_SE REUNION_R64_SW REUNION_R64_NW BOM_LAT BOM_LON BOM_TYPE BOM_WIND BOM_PRES BOM_TNUM BOM_CI BOM_RMW BOM_R34_NE BOM_R34_SE BOM_R34_SW BOM_R34_NW BOM_R50_NE BOM_R50_SE BOM_R50_SW BOM_R50_NW BOM_R64_NE BOM_R64_SE BOM_R64_SW BOM_R64_NW BOM_ROCI BOM_POCI BOM_EYE BOM_POS_METHOD BOM_PRES_METHOD NADI_LAT NADI_LON NADI_CAT NADI_WIND NADI_PRES WELLINGTON_LAT WELLINGTON_LON WELLINGTON_WIND WELLINGTON_PRES DS824_LAT DS824_LON DS824_STAGE DS824_WIND DS824_PRES TD9636_LAT TD9636_LON TD9636_STAGE TD9636_WIND TD9636_PRES TD9635_LAT TD9635_LON TD9635_WIND TD9635_PRES TD9635_ROCI NEUMANN_LAT NEUMANN_LON NEUMANN_CLASS NEUMANN_WIND NEUMANN_PRES MLC_LAT MLC_LON MLC_CLASS MLC_WIND MLC_PRES USA_GUST BOM_GUST BOM_GUST_PER REUNION_GUST REUNION_GUST_PER USA_SEAHGT USA_SEARAD_NE USA_SEARAD_SE USA_SEARAD_SW USA_SEARAD_NW STORM_SPEED STORM_DIR
1965265N15119 1965 98 WP MM AGNES 1965-09-21 18:00:00 TS 15.4000 119.000 spur-merge 96 96 __O___________ -1 15.4000 119.000 0 1006 5 311
1965265N15119 1965 98 WP MM AGNES 1965-09-21 21:00:00 TS 15.5625 118.808 spur-merge 106 106 __P___________ -1 15.5625 118.808 0 1006 5 308
1965265N15119 1965 98 WP MM AGNES 1965-09-22 00:00:00 TS 15.7000 118.600 spur-merge 122 122 __O___________ -1 15.7000 118.600 0 1006 5 300
1965265N15119 1965 98 WP MM AGNES 1965-09-22 03:00:00 TS 15.8000 118.377 spur-merge 140 140 __P___________ -1 15.8000 118.377 0 1006 4 297
1965265N15119 1965 98 WP MM AGNES 1965-09-22 06:00:00 TS 15.9000 118.200 spur-merge 160 160 __O___________ -1 15.9000 118.200 0 1006 3 313
1965265N15119 1965 98 WP MM AGNES 1965-09-22 09:00:00 TS 16.0275 118.120 spur-merge 171 171 __P___________ -1 16.0275 118.120 0 1006 3 343
1965265N15119 1965 98 WP MM AGNES 1965-09-22 12:00:00 TS 16.2000 118.100 spur-merge 172 172 __O___________ -1 16.2000 118.100 0 1006 4 353
1965265N15119 1965 98 WP MM AGNES 1965-09-22 15:00:00 TS 16.4500 118.055 spur-merge 176 176 __P___________ -1 16.4500 118.055 0 1005 5 2
1965265N15119 1965 98 WP MM AGNES 1965-09-22 18:00:00 TS 16.7000 118.100 spur-merge 186 173 __O___________ -1 16.7000 118.100 0 19 1004 5 28
1965265N15119 1965 98 WP MM AGNES 1965-09-22 21:00:00 TS 16.9251 118.320 spur-merge 173 149 __P___________ -1 16.9251 118.320 0 19 1004 6 58
1965265N15119 1965 98 WP MM AGNES 1965-09-23 00:00:00 TS 17.0000 118.600 spur-merge 149 111 __O___________ -1 17.0000 118.600 0 19 1004 6 103
1965265N15119 1965 98 WP MM AGNES 1965-09-23 03:00:00 TS 16.7872 118.943 spur-merge 111 88 __P___________ -1 16.7872 118.943 0 19 1004 6 142
1965265N15119 1965 98 WP MM AGNES 1965-09-23 06:00:00 TS 16.5000 119.000 spur-merge 88 88 __O___________ -1 16.5000 119.000 0 19 1004 6 230
1965265N15119 1965 98 WP MM AGNES 1965-09-23 09:00:00 TS 16.3853 118.450 spur-merge 145 145 __P___________ -1 16.3853 118.450 0 19 1004 14 262
1965265N15119 1965 98 WP MM AGNES 1965-09-23 12:00:00 TS 16.3000 117.600 spur-merge 226 226 __O___________ -1 16.3000 117.600 0 19 1004 17 264
1965265N15119 1965 98 WP MM AGNES 1965-09-23 15:00:00 TS 16.2031 116.718 spur-merge 321 321 __P___________ -1 16.2031 116.718 0 24 1004 16 259
1965265N15119 1965 98 WP MM AGNES 1965-09-23 18:00:00 TS 16.0000 116.000 spur-merge 395 395 __O___________ -1 16.0000 116.000 1 29 1004 11 237
1965265N15119 1965 98 WP MM AGNES 1965-09-23 21:00:00 TS 15.6020 115.745 spur-merge 430 430 __P___________ -1 15.6020 115.745 1 29 1004 10 198
1965265N15119 1965 98 WP MM AGNES 1965-09-24 00:00:00 TS 15.1000 115.700 spur-merge 440 440 __O___________ -1 15.1000 115.700 1 29 1004 10 186
1965265N15119 1965 98 WP MM AGNES 1965-09-24 03:00:00 TS 14.5774 115.638 spur-merge 466 466 __P___________ -1 14.5952 115.622 1 29 1004 10 191
1965265N15119 1965 98 WP MM AGNES 1965-09-24 06:00:00 TS 14.1000 115.500 spur-merge 495 __O___________ -1 14.1000 115.500 1 29 1004 10 196

Digital Typhoon Data and Search

About IBTrACS Database

This database is a web-friendly format of International Best Track Archive for Climate Stewardship (IBTrACS), a global best track data archive curated by NOAA dating back to 1842.

Updated: 2021-11-26